sensor_id;sensor_type;location;lat;lon;timestamp;pressure;altitude;pressure_sealevel;temperature;humidity
41306;BME280;27051;50.376;19.152;2023-02-17T00:02:03;98694.74;;;3.79;55.84
41306;BME280;27051;50.376;19.152;2023-02-17T00:04:31;98694.77;;;3.83;55.77
41306;BME280;27051;50.376;19.152;2023-02-17T00:06:58;98698.23;;;3.89;55.89
41306;BME280;27051;50.376;19.152;2023-02-17T00:09:24;98700.04;;;3.94;55.71
41306;BME280;27051;50.376;19.152;2023-02-17T00:11:50;98692.24;;;3.97;55.82
41306;BME280;27051;50.376;19.152;2023-02-17T00:14:17;98694.73;;;3.93;55.72
41306;BME280;27051;50.376;19.152;2023-02-17T00:16:43;98689.64;;;3.89;55.81
41306;BME280;27051;50.376;19.152;2023-02-17T00:19:11;98689.56;;;3.88;55.88
41306;BME280;27051;50.376;19.152;2023-02-17T00:21:37;98689.50;;;3.88;55.92
41306;BME280;27051;50.376;19.152;2023-02-17T00:24:03;98684.19;;;3.88;55.98
41306;BME280;27051;50.376;19.152;2023-02-17T00:26:29;98680.87;;;3.86;56.02
41306;BME280;27051;50.376;19.152;2023-02-17T00:28:56;98682.98;;;3.84;56.05
41306;BME280;27051;50.376;19.152;2023-02-17T00:31:22;98686.14;;;3.83;56.21
41306;BME280;27051;50.376;19.152;2023-02-17T00:33:49;98677.50;;;3.87;56.28
41306;BME280;27051;50.376;19.152;2023-02-17T00:36:18;98678.38;;;3.90;56.20
41306;BME280;27051;50.376;19.152;2023-02-17T00:38:46;98682.24;;;3.92;56.40
41306;BME280;27051;50.376;19.152;2023-02-17T00:41:12;98679.11;;;3.91;56.19
41306;BME280;27051;50.376;19.152;2023-02-17T00:43:38;98673.48;;;3.91;56.16
41306;BME280;27051;50.376;19.152;2023-02-17T00:46:05;98673.54;;;3.95;56.23
41306;BME280;27051;50.376;19.152;2023-02-17T00:48:31;98671.73;;;4.00;56.22
41306;BME280;27051;50.376;19.152;2023-02-17T00:50:58;98670.88;;;4.06;56.22
41306;BME280;27051;50.376;19.152;2023-02-17T00:53:24;98667.73;;;4.05;56.15
41306;BME280;27051;50.376;19.152;2023-02-17T00:55:50;98668.34;;;4.09;56.38
41306;BME280;27051;50.376;19.152;2023-02-17T00:58:16;98666.48;;;4.16;56.28
41306;BME280;27051;50.376;19.152;2023-02-17T01:00:42;98664.80;;;4.12;56.32
41306;BME280;27051;50.376;19.152;2023-02-17T01:03:09;98664.48;;;4.11;56.25
41306;BME280;27051;50.376;19.152;2023-02-17T01:05:42;98664.74;;;4.07;56.54
41306;BME280;27051;50.376;19.152;2023-02-17T01:08:10;98659.25;;;4.08;56.46
41306;BME280;27051;50.376;19.152;2023-02-17T01:10:40;98653.33;;;4.05;56.45
41306;BME280;27051;50.376;19.152;2023-02-17T01:13:06;98654.23;;;4.05;56.40
41306;BME280;27051;50.376;19.152;2023-02-17T01:15:41;98644.32;;;4.03;56.50
41306;BME280;27051;50.376;19.152;2023-02-17T01:18:07;98639.42;;;4.02;56.38
41306;BME280;27051;50.376;19.152;2023-02-17T01:20:35;98638.42;;;4.05;56.52
41306;BME280;27051;50.376;19.152;2023-02-17T01:23:01;98641.00;;;4.08;56.70
41306;BME280;27051;50.376;19.152;2023-02-17T01:25:27;98635.77;;;4.08;56.61
41306;BME280;27051;50.376;19.152;2023-02-17T01:27:53;98638.95;;;4.07;56.72
41306;BME280;27051;50.376;19.152;2023-02-17T01:30:20;98636.91;;;4.08;56.73
41306;BME280;27051;50.376;19.152;2023-02-17T01:32:46;98634.14;;;4.04;56.67
41306;BME280;27051;50.376;19.152;2023-02-17T01:35:12;98635.95;;;3.97;56.89
41306;BME280;27051;50.376;19.152;2023-02-17T01:37:38;98638.80;;;3.95;56.86
41306;BME280;27051;50.376;19.152;2023-02-17T01:40:05;98643.47;;;3.92;56.73
41306;BME280;27051;50.376;19.152;2023-02-17T01:42:31;98645.78;;;3.89;56.86
41306;BME280;27051;50.376;19.152;2023-02-17T01:45:28;98635.04;;;3.88;57.06
41306;BME280;27051;50.376;19.152;2023-02-17T01:48:18;98643.34;;;3.87;57.03
41306;BME280;27051;50.376;19.152;2023-02-17T01:50:49;98638.88;;;3.82;57.33
41306;BME280;27051;50.376;19.152;2023-02-17T01:53:22;98633.39;;;3.79;57.44
41306;BME280;27051;50.376;19.152;2023-02-17T01:55:50;98635.40;;;3.79;57.47
41306;BME280;27051;50.376;19.152;2023-02-17T01:58:19;98633.72;;;3.77;57.36
41306;BME280;27051;50.376;19.152;2023-02-17T02:00:47;98632.89;;;3.75;57.19
41306;BME280;27051;50.376;19.152;2023-02-17T02:03:15;98636.96;;;3.73;57.42
41306;BME280;27051;50.376;19.152;2023-02-17T02:05:42;98637.38;;;3.73;57.40
41306;BME280;27051;50.376;19.152;2023-02-17T02:08:09;98636.55;;;3.75;57.33
41306;BME280;27051;50.376;19.152;2023-02-17T02:10:36;98634.78;;;3.77;57.41
41306;BME280;27051;50.376;19.152;2023-02-17T02:13:03;98632.74;;;3.79;57.45
41306;BME280;27051;50.376;19.152;2023-02-17T02:15:34;98630.66;;;3.80;57.34
41306;BME280;27051;50.376;19.152;2023-02-17T02:18:23;98631.55;;;3.81;57.54
41306;BME280;27051;50.376;19.152;2023-02-17T02:26:41;98618.07;;;3.94;57.46
41306;BME280;27051;50.376;19.152;2023-02-17T02:34:34;98608.96;;;3.95;57.25
41306;BME280;27051;50.376;19.152;2023-02-17T02:37:06;98605.67;;;3.94;57.86
41306;BME280;27051;50.376;19.152;2023-02-17T02:39:37;98606.18;;;3.97;57.66
41306;BME280;27051;50.376;19.152;2023-02-17T02:42:10;98602.75;;;3.93;57.60
41306;BME280;27051;50.376;19.152;2023-02-17T02:44:37;98609.91;;;3.91;57.63
41306;BME280;27051;50.376;19.152;2023-02-17T02:47:39;98607.85;;;3.89;57.78
41306;BME280;27051;50.376;19.152;2023-02-17T02:49:52;98604.90;;;3.87;58.11
41306;BME280;27051;50.376;19.152;2023-02-17T02:52:26;98595.13;;;3.86;57.84
41306;BME280;27051;50.376;19.152;2023-02-17T02:55:53;98593.70;;;3.85;57.96
41306;BME280;27051;50.376;19.152;2023-02-17T03:00:33;98597.59;;;3.85;57.70
41306;BME280;27051;50.376;19.152;2023-02-17T03:03:08;98595.38;;;3.88;57.76
41306;BME280;27051;50.376;19.152;2023-02-17T03:08:34;98588.27;;;4.00;57.76
41306;BME280;27051;50.376;19.152;2023-02-17T03:11:03;98587.61;;;4.06;57.64
41306;BME280;27051;50.376;19.152;2023-02-17T03:13:32;98581.08;;;4.11;57.65
41306;BME280;27051;50.376;19.152;2023-02-17T03:15:59;98572.56;;;4.10;57.56
41306;BME280;27051;50.376;19.152;2023-02-17T03:18:25;98572.56;;;4.10;57.56
41306;BME280;27051;50.376;19.152;2023-02-17T03:20:56;98569.66;;;4.13;57.72
41306;BME280;27051;50.376;19.152;2023-02-17T03:23:26;98571.69;;;4.17;57.61
41306;BME280;27051;50.376;19.152;2023-02-17T03:25:53;98571.14;;;4.19;57.68
41306;BME280;27051;50.376;19.152;2023-02-17T03:28:19;98572.62;;;4.20;57.67
41306;BME280;27051;50.376;19.152;2023-02-17T03:30:45;98575.78;;;4.22;57.67
41306;BME280;27051;50.376;19.152;2023-02-17T03:33:11;98579.46;;;4.22;57.75
41306;BME280;27051;50.376;19.152;2023-02-17T03:35:37;98579.36;;;4.25;57.66
41306;BME280;27051;50.376;19.152;2023-02-17T03:38:03;98575.31;;;4.30;57.77
41306;BME280;27051;50.376;19.152;2023-02-17T03:40:30;98577.90;;;4.31;57.70
41306;BME280;27051;50.376;19.152;2023-02-17T03:42:56;98571.13;;;4.32;57.71
41306;BME280;27051;50.376;19.152;2023-02-17T03:45:23;98568.40;;;4.33;57.66
41306;BME280;27051;50.376;19.152;2023-02-17T03:47:49;98576.27;;;4.34;57.73
41306;BME280;27051;50.376;19.152;2023-02-17T03:50:15;98579.66;;;4.36;57.74
41306;BME280;27051;50.376;19.152;2023-02-17T03:52:41;98574.86;;;4.32;57.64
41306;BME280;27051;50.376;19.152;2023-02-17T03:55:07;98573.58;;;4.32;57.58
41306;BME280;27051;50.376;19.152;2023-02-17T03:57:34;98569.92;;;4.33;57.66
41306;BME280;27051;50.376;19.152;2023-02-17T04:00:00;98565.34;;;4.35;57.58
41306;BME280;27051;50.376;19.152;2023-02-17T04:02:26;98564.27;;;4.34;57.66
41306;BME280;27051;50.376;19.152;2023-02-17T04:04:52;98562.36;;;4.35;57.69
41306;BME280;27051;50.376;19.152;2023-02-17T04:07:18;98563.52;;;4.36;57.62
41306;BME280;27051;50.376;19.152;2023-02-17T04:09:44;98557.98;;;4.32;57.75
41306;BME280;27051;50.376;19.152;2023-02-17T04:12:11;98553.84;;;4.34;57.69
41306;BME280;27051;50.376;19.152;2023-02-17T04:14:37;98554.75;;;4.35;57.81
41306;BME280;27051;50.376;19.152;2023-02-17T04:17:03;98559.08;;;4.33;57.96
41306;BME280;27051;50.376;19.152;2023-02-17T04:19:29;98554.05;;;4.35;57.89
41306;BME280;27051;50.376;19.152;2023-02-17T04:21:55;98557.85;;;4.42;57.89
41306;BME280;27051;50.376;19.152;2023-02-17T04:24:22;98559.71;;;4.46;57.82
41306;BME280;27051;50.376;19.152;2023-02-17T04:26:48;98560.34;;;4.51;57.84
41306;BME280;27051;50.376;19.152;2023-02-17T04:29:14;98557.55;;;4.56;57.80
41306;BME280;27051;50.376;19.152;2023-02-17T04:31:40;98557.30;;;4.60;57.72
41306;BME280;27051;50.376;19.152;2023-02-17T04:34:06;98555.23;;;4.57;57.62
41306;BME280;27051;50.376;19.152;2023-02-17T04:36:33;98551.29;;;4.55;57.62
41306;BME280;27051;50.376;19.152;2023-02-17T04:38:59;98550.04;;;4.56;57.86
41306;BME280;27051;50.376;19.152;2023-02-17T04:41:25;98554.05;;;4.59;57.78
41306;BME280;27051;50.376;19.152;2023-02-17T04:43:51;98552.85;;;4.62;57.78
41306;BME280;27051;50.376;19.152;2023-02-17T04:46:17;98552.92;;;4.64;57.80
41306;BME280;27051;50.376;19.152;2023-02-17T04:48:43;98548.95;;;4.69;57.79
41306;BME280;27051;50.376;19.152;2023-02-17T04:51:10;98540.70;;;4.66;57.67
41306;BME280;27051;50.376;19.152;2023-02-17T04:53:36;98540.93;;;4.65;57.81
41306;BME280;27051;50.376;19.152;2023-02-17T04:56:02;98538.60;;;4.67;57.88
41306;BME280;27051;50.376;19.152;2023-02-17T04:58:28;98539.66;;;4.75;57.91
41306;BME280;27051;50.376;19.152;2023-02-17T05:00:57;98534.15;;;4.76;57.76
41306;BME280;27051;50.376;19.152;2023-02-17T05:03:24;98530.06;;;4.72;57.74
41306;BME280;27051;50.376;19.152;2023-02-17T05:05:50;98522.89;;;4.75;57.97
41306;BME280;27051;50.376;19.152;2023-02-17T05:08:17;98523.20;;;4.78;57.93
41306;BME280;27051;50.376;19.152;2023-02-17T05:10:43;98522.73;;;4.81;57.92
41306;BME280;27051;50.376;19.152;2023-02-17T05:13:09;98515.22;;;4.82;57.80
41306;BME280;27051;50.376;19.152;2023-02-17T05:15:35;98513.66;;;4.82;57.86
41306;BME280;27051;50.376;19.152;2023-02-17T05:18:01;98508.13;;;4.85;57.89
41306;BME280;27051;50.376;19.152;2023-02-17T05:20:28;98508.88;;;4.89;58.01
41306;BME280;27051;50.376;19.152;2023-02-17T05:22:54;98507.56;;;4.91;57.83
41306;BME280;27051;50.376;19.152;2023-02-17T05:25:29;98509.93;;;4.89;57.79
41306;BME280;27051;50.376;19.152;2023-02-17T05:27:56;98510.38;;;4.93;58.06
41306;BME280;27051;50.376;19.152;2023-02-17T05:30:22;98512.13;;;5.02;57.94
41306;BME280;27051;50.376;19.152;2023-02-17T05:32:48;98508.50;;;5.05;57.84
41306;BME280;27051;50.376;19.152;2023-02-17T05:35:15;98511.60;;;5.07;57.88
41306;BME280;27051;50.376;19.152;2023-02-17T05:37:41;98511.59;;;5.12;57.86
41306;BME280;27051;50.376;19.152;2023-02-17T05:40:07;98512.75;;;5.12;57.71
41306;BME280;27051;50.376;19.152;2023-02-17T05:42:36;98512.48;;;5.16;57.83
41306;BME280;27051;50.376;19.152;2023-02-17T05:45:03;98512.55;;;5.23;57.92
41306;BME280;27051;50.376;19.152;2023-02-17T05:47:29;98515.02;;;5.32;57.65
41306;BME280;27051;50.376;19.152;2023-02-17T05:49:58;98519.56;;;5.35;57.61
41306;BME280;27051;50.376;19.152;2023-02-17T05:52:25;98510.80;;;5.39;57.79
41306;BME280;27051;50.376;19.152;2023-02-17T05:54:51;98502.41;;;5.42;57.58
41306;BME280;27051;50.376;19.152;2023-02-17T05:57:17;98499.36;;;5.40;57.62
41306;BME280;27051;50.376;19.152;2023-02-17T05:59:43;98501.09;;;5.41;57.68
41306;BME280;27051;50.376;19.152;2023-02-17T06:02:09;98500.04;;;5.40;57.69
41306;BME280;27051;50.376;19.152;2023-02-17T06:04:36;98494.41;;;5.37;57.67
41306;BME280;27051;50.376;19.152;2023-02-17T06:07:02;98486.67;;;5.32;57.72
41306;BME280;27051;50.376;19.152;2023-02-17T06:09:28;98485.03;;;5.28;57.75
41306;BME280;27051;50.376;19.152;2023-02-17T06:11:54;98491.27;;;5.31;57.95
41306;BME280;27051;50.376;19.152;2023-02-17T06:14:20;98491.45;;;5.32;57.87
41306;BME280;27051;50.376;19.152;2023-02-17T06:16:47;98496.68;;;5.32;57.96
41306;BME280;27051;50.376;19.152;2023-02-17T06:19:13;98494.41;;;5.37;57.98
41306;BME280;27051;50.376;19.152;2023-02-17T06:21:39;98485.66;;;5.40;57.84
41306;BME280;27051;50.376;19.152;2023-02-17T06:24:05;98487.83;;;5.44;57.88
41306;BME280;27051;50.376;19.152;2023-02-17T06:26:40;98484.80;;;5.43;58.00
41306;BME280;27051;50.376;19.152;2023-02-17T06:29:06;98482.10;;;5.42;57.88
41306;BME280;27051;50.376;19.152;2023-02-17T06:31:33;98486.04;;;5.43;57.96
41306;BME280;27051;50.376;19.152;2023-02-17T06:33:59;98483.63;;;5.47;58.02
41306;BME280;27051;50.376;19.152;2023-02-17T06:36:25;98485.34;;;5.52;58.14
41306;BME280;27051;50.376;19.152;2023-02-17T06:38:51;98478.07;;;5.58;58.01
41306;BME280;27051;50.376;19.152;2023-02-17T06:41:17;98479.45;;;5.60;57.98
41306;BME280;27051;50.376;19.152;2023-02-17T06:43:43;98483.91;;;5.62;58.03
41306;BME280;27051;50.376;19.152;2023-02-17T06:46:10;98483.86;;;5.67;58.12
41306;BME280;27051;50.376;19.152;2023-02-17T06:48:36;98485.72;;;5.71;57.81
41306;BME280;27051;50.376;19.152;2023-02-17T06:51:03;98479.52;;;5.74;57.91
41306;BME280;27051;50.376;19.152;2023-02-17T06:53:29;98480.80;;;5.79;58.02
41306;BME280;27051;50.376;19.152;2023-02-17T06:55:55;98473.09;;;5.83;57.94
41306;BME280;27051;50.376;19.152;2023-02-17T06:58:21;98468.15;;;5.85;57.89
41306;BME280;27051;50.376;19.152;2023-02-17T07:00:47;98460.85;;;5.87;57.87
41306;BME280;27051;50.376;19.152;2023-02-17T07:03:14;98463.02;;;5.93;57.89
41306;BME280;27051;50.376;19.152;2023-02-17T07:05:40;98460.58;;;5.99;57.76
41306;BME280;27051;50.376;19.152;2023-02-17T07:08:06;98461.86;;;6.04;57.77
41306;BME280;27051;50.376;19.152;2023-02-17T07:10:32;98460.27;;;6.11;57.88
41306;BME280;27051;50.376;19.152;2023-02-17T07:12:59;98458.64;;;6.22;57.95
41306;BME280;27051;50.376;19.152;2023-02-17T07:15:25;98452.20;;;6.26;57.77
41306;BME280;27051;50.376;19.152;2023-02-17T07:17:51;98463.52;;;6.33;57.91
41306;BME280;27051;50.376;19.152;2023-02-17T07:20:17;98470.41;;;6.38;57.80
41306;BME280;27051;50.376;19.152;2023-02-17T07:22:43;98476.39;;;6.42;57.73
41306;BME280;27051;50.376;19.152;2023-02-17T07:25:10;98482.96;;;6.47;57.71
41306;BME280;27051;50.376;19.152;2023-02-17T07:27:36;98488.55;;;6.50;57.65
41306;BME280;27051;50.376;19.152;2023-02-17T07:30:03;98485.56;;;6.55;57.68
41306;BME280;27051;50.376;19.152;2023-02-17T07:32:30;98483.34;;;6.60;57.62
41306;BME280;27051;50.376;19.152;2023-02-17T07:34:56;98473.86;;;6.66;57.59
41306;BME280;27051;50.376;19.152;2023-02-17T07:37:22;98466.11;;;6.76;57.58
41306;BME280;27051;50.376;19.152;2023-02-17T07:39:48;98464.80;;;6.82;57.54
41306;BME280;27051;50.376;19.152;2023-02-17T07:42:14;98460.04;;;6.86;57.44
41306;BME280;27051;50.376;19.152;2023-02-17T07:44:41;98452.98;;;6.90;57.50
41306;BME280;27051;50.376;19.152;2023-02-17T07:47:07;98449.59;;;7.00;57.46
41306;BME280;27051;50.376;19.152;2023-02-17T07:49:33;98447.85;;;7.09;57.39
41306;BME280;27051;50.376;19.152;2023-02-17T07:51:59;98453.52;;;7.20;57.38
41306;BME280;27051;50.376;19.152;2023-02-17T07:54:25;98456.90;;;7.27;57.20
41306;BME280;27051;50.376;19.152;2023-02-17T07:56:52;98452.46;;;7.33;56.99
41306;BME280;27051;50.376;19.152;2023-02-17T07:59:18;98445.05;;;7.38;57.00
41306;BME280;27051;50.376;19.152;2023-02-17T08:01:44;98444.00;;;7.50;57.08
41306;BME280;27051;50.376;19.152;2023-02-17T08:04:11;98441.73;;;7.55;56.82
41306;BME280;27051;50.376;19.152;2023-02-17T08:06:37;98434.33;;;7.55;56.66
41306;BME280;27051;50.376;19.152;2023-02-17T08:09:04;98436.34;;;7.55;56.62
41306;BME280;27051;50.376;19.152;2023-02-17T08:11:30;98433.10;;;7.58;56.73
41306;BME280;27051;50.376;19.152;2023-02-17T08:13:56;98427.40;;;7.68;56.79
41306;BME280;27051;50.376;19.152;2023-02-17T08:16:22;98422.21;;;7.74;56.63
41306;BME280;27051;50.376;19.152;2023-02-17T08:18:48;98424.04;;;7.76;56.51
41306;BME280;27051;50.376;19.152;2023-02-17T08:21:14;98429.02;;;7.78;56.52
41306;BME280;27051;50.376;19.152;2023-02-17T08:23:41;98432.71;;;7.78;56.53
41306;BME280;27051;50.376;19.152;2023-02-17T08:26:07;98427.92;;;7.75;56.50
41306;BME280;27051;50.376;19.152;2023-02-17T08:28:33;98427.84;;;7.74;56.65
41306;BME280;27051;50.376;19.152;2023-02-17T08:30:59;98430.81;;;7.75;56.59
41306;BME280;27051;50.376;19.152;2023-02-17T08:33:25;98433.05;;;7.77;56.61
41306;BME280;27051;50.376;19.152;2023-02-17T08:35:52;98432.23;;;7.76;56.53
41306;BME280;27051;50.376;19.152;2023-02-17T08:38:18;98437.60;;;7.75;56.72
41306;BME280;27051;50.376;19.152;2023-02-17T08:40:44;98434.39;;;7.73;56.65
41306;BME280;27051;50.376;19.152;2023-02-17T08:43:10;98438.23;;;7.80;56.82
41306;BME280;27051;50.376;19.152;2023-02-17T08:45:37;98433.83;;;7.86;56.70
41306;BME280;27051;50.376;19.152;2023-02-17T08:48:04;98436.29;;;7.89;56.60
41306;BME280;27051;50.376;19.152;2023-02-17T08:50:31;98430.63;;;7.94;56.66
41306;BME280;27051;50.376;19.152;2023-02-17T08:52:58;98431.42;;;8.02;56.64
41306;BME280;27051;50.376;19.152;2023-02-17T08:55:24;98427.75;;;8.12;56.60
41306;BME280;27051;50.376;19.152;2023-02-17T08:57:50;98418.48;;;8.20;56.65
41306;BME280;27051;50.376;19.152;2023-02-17T09:00:17;98421.14;;;8.29;56.78
41306;BME280;27051;50.376;19.152;2023-02-17T09:02:43;98416.44;;;8.30;56.64
41306;BME280;27051;50.376;19.152;2023-02-17T09:05:11;98414.84;;;8.30;56.90
41306;BME280;27051;50.376;19.152;2023-02-17T09:07:38;98417.58;;;8.35;56.91
41306;BME280;27051;50.376;19.152;2023-02-17T09:10:11;98414.88;;;8.39;56.96
41306;BME280;27051;50.376;19.152;2023-02-17T09:12:41;98414.95;;;8.46;56.75
41306;BME280;27051;50.376;19.152;2023-02-17T09:15:07;98415.20;;;8.45;56.63
41306;BME280;27051;50.376;19.152;2023-02-17T09:17:37;98414.80;;;8.42;56.50
41306;BME280;27051;50.376;19.152;2023-02-17T09:20:04;98412.43;;;8.36;56.44
41306;BME280;27051;50.376;19.152;2023-02-17T09:22:35;98407.75;;;8.36;56.26
41306;BME280;27051;50.376;19.152;2023-02-17T09:25:03;98405.86;;;8.40;56.31
41306;BME280;27051;50.376;19.152;2023-02-17T09:27:30;98393.98;;;8.44;56.39
41306;BME280;27051;50.376;19.152;2023-02-17T09:30:00;98395.46;;;8.52;56.26
41306;BME280;27051;50.376;19.152;2023-02-17T09:32:26;98398.95;;;8.60;56.23
41306;BME280;27051;50.376;19.152;2023-02-17T09:34:52;98397.70;;;8.67;56.02
41306;BME280;27051;50.376;19.152;2023-02-17T09:37:19;98396.28;;;8.71;55.95
41306;BME280;27051;50.376;19.152;2023-02-17T09:39:46;98396.53;;;8.77;55.87
41306;BME280;27051;50.376;19.152;2023-02-17T09:42:21;98394.20;;;8.76;55.67
41306;BME280;27051;50.376;19.152;2023-02-17T09:45:02;98395.74;;;8.86;55.73
41306;BME280;27051;50.376;19.152;2023-02-17T09:47:43;98395.57;;;8.91;55.47
41306;BME280;27051;50.376;19.152;2023-02-17T09:50:16;98392.57;;;8.93;55.51
41306;BME280;27051;50.376;19.152;2023-02-17T09:52:53;98397.10;;;8.91;55.39
41306;BME280;27051;50.376;19.152;2023-02-17T09:55:28;98390.64;;;8.84;55.55
41306;BME280;27051;50.376;19.152;2023-02-17T09:58:00;98397.79;;;8.91;55.74
41306;BME280;27051;50.376;19.152;2023-02-17T10:00:32;98390.83;;;8.97;55.86
41306;BME280;27051;50.376;19.152;2023-02-17T10:05:50;98398.66;;;9.01;55.88
41306;BME280;27051;50.376;19.152;2023-02-17T10:08:21;98403.06;;;8.93;56.09
41306;BME280;27051;50.376;19.152;2023-02-17T10:11:04;98403.63;;;8.84;56.21
41306;BME280;27051;50.376;19.152;2023-02-17T10:13:35;98402.75;;;8.81;56.49
41306;BME280;27051;50.376;19.152;2023-02-17T10:16:08;98397.89;;;8.82;56.53
41306;BME280;27051;50.376;19.152;2023-02-17T10:18:42;98391.79;;;8.83;56.42
41306;BME280;27051;50.376;19.152;2023-02-17T10:21:17;98393.80;;;8.80;56.64
41306;BME280;27051;50.376;19.152;2023-02-17T10:23:44;98390.29;;;8.76;56.83
41306;BME280;27051;50.376;19.152;2023-02-17T10:28:53;98386.75;;;8.74;56.86
41306;BME280;27051;50.376;19.152;2023-02-17T10:37:01;98375.14;;;8.77;57.13
41306;BME280;27051;50.376;19.152;2023-02-17T10:39:33;98367.52;;;8.81;57.16
41306;BME280;27051;50.376;19.152;2023-02-17T10:42:10;98367.50;;;8.82;57.26
41306;BME280;27051;50.376;19.152;2023-02-17T10:44:39;98364.00;;;8.74;57.33
41306;BME280;27051;50.376;19.152;2023-02-17T10:47:05;98359.69;;;8.68;57.13
41306;BME280;27051;50.376;19.152;2023-02-17T10:49:38;98342.59;;;8.63;57.35
41306;BME280;27051;50.376;19.152;2023-02-17T10:52:12;98339.63;;;8.62;57.34
41306;BME280;27051;50.376;19.152;2023-02-17T10:54:47;98334.94;;;8.58;57.26
41306;BME280;27051;50.376;19.152;2023-02-17T10:57:16;98329.42;;;8.58;57.38
41306;BME280;27051;50.376;19.152;2023-02-17T10:59:45;98320.27;;;8.62;57.28
41306;BME280;27051;50.376;19.152;2023-02-17T11:02:42;98314.17;;;8.67;57.26
41306;BME280;27051;50.376;19.152;2023-02-17T11:05:26;98307.23;;;8.79;57.23
41306;BME280;27051;50.376;19.152;2023-02-17T11:07:56;98302.90;;;8.90;57.06
41306;BME280;27051;50.376;19.152;2023-02-17T11:10:28;98287.77;;;8.94;56.91
41306;BME280;27051;50.376;19.152;2023-02-17T11:12:55;98272.80;;;9.07;57.09
41306;BME280;27051;50.376;19.152;2023-02-17T11:15:25;98271.34;;;9.25;57.06
41306;BME280;27051;50.376;19.152;2023-02-17T11:17:52;98271.41;;;9.38;56.83
41306;BME280;27051;50.376;19.152;2023-02-17T11:22:47;98268.25;;;9.26;56.71
41306;BME280;27051;50.376;19.152;2023-02-17T11:25:26;98267.18;;;9.16;56.79
41306;BME280;27051;50.376;19.152;2023-02-17T11:27:55;98263.31;;;9.09;56.83
41306;BME280;27051;50.376;19.152;2023-02-17T11:30:23;98253.65;;;9.03;56.92
41306;BME280;27051;50.376;19.152;2023-02-17T11:32:49;98253.23;;;9.02;56.98
41306;BME280;27051;50.376;19.152;2023-02-17T11:40:40;98243.14;;;9.06;56.73
41306;BME280;27051;50.376;19.152;2023-02-17T11:43:06;98242.26;;;9.05;56.80
41306;BME280;27051;50.376;19.152;2023-02-17T11:51:13;98245.02;;;9.03;56.67
41306;BME280;27051;50.376;19.152;2023-02-17T11:56:28;98244.73;;;8.96;56.81
41306;BME280;27051;50.376;19.152;2023-02-17T12:12:24;98219.38;;;8.61;57.07
41306;BME280;27051;50.376;19.152;2023-02-17T12:15:09;98218.06;;;8.60;57.12
41306;BME280;27051;50.376;19.152;2023-02-17T12:18:22;98218.23;;;8.62;57.23
41306;BME280;27051;50.376;19.152;2023-02-17T12:29:47;98210.55;;;8.60;57.37
41306;BME280;27051;50.376;19.152;2023-02-17T12:34:58;98207.19;;;8.60;57.56
41306;BME280;27051;50.376;19.152;2023-02-17T12:37:31;98203.75;;;8.66;57.64
41306;BME280;27051;50.376;19.152;2023-02-17T12:40:05;98200.44;;;8.73;57.59
41306;BME280;27051;50.376;19.152;2023-02-17T12:42:40;98196.00;;;8.79;57.54
41306;BME280;27051;50.376;19.152;2023-02-17T12:45:21;98196.70;;;8.81;57.51
41306;BME280;27051;50.376;19.152;2023-02-17T12:48:11;98198.30;;;8.79;57.72
41306;BME280;27051;50.376;19.152;2023-02-17T12:50:59;98185.52;;;8.75;57.61
41306;BME280;27051;50.376;19.152;2023-02-17T12:53:51;98187.56;;;8.77;57.72
41306;BME280;27051;50.376;19.152;2023-02-17T12:58:53;98174.62;;;8.63;57.99
41306;BME280;27051;50.376;19.152;2023-02-17T13:01:20;98170.55;;;8.58;58.13
41306;BME280;27051;50.376;19.152;2023-02-17T13:03:50;98165.05;;;8.59;58.05
41306;BME280;27051;50.376;19.152;2023-02-17T13:06:36;98166.41;;;8.64;58.12
41306;BME280;27051;50.376;19.152;2023-02-17T13:09:32;98154.35;;;8.61;58.08
41306;BME280;27051;50.376;19.152;2023-02-17T13:14:48;98145.20;;;8.62;58.09
41306;BME280;27051;50.376;19.152;2023-02-17T13:17:55;98143.20;;;8.62;58.17
41306;BME280;27051;50.376;19.152;2023-02-17T13:22:41;98123.81;;;8.62;58.29
41306;BME280;27051;50.376;19.152;2023-02-17T13:25:31;98116.90;;;8.59;58.30
41306;BME280;27051;50.376;19.152;2023-02-17T13:28:00;98117.34;;;8.58;58.38
41306;BME280;27051;50.376;19.152;2023-02-17T13:30:37;98108.65;;;8.57;58.49
41306;BME280;27051;50.376;19.152;2023-02-17T13:33:27;98103.40;;;8.60;58.42
41306;BME280;27051;50.376;19.152;2023-02-17T13:35:52;98094.33;;;8.65;58.35
41306;BME280;27051;50.376;19.152;2023-02-17T13:38:29;98088.11;;;8.69;58.44
41306;BME280;27051;50.376;19.152;2023-02-17T13:40:59;98079.20;;;8.77;58.39
41306;BME280;27051;50.376;19.152;2023-02-17T13:43:27;98070.17;;;8.82;58.40
41306;BME280;27051;50.376;19.152;2023-02-17T13:45:59;98068.20;;;8.85;58.32
41306;BME280;27051;50.376;19.152;2023-02-17T13:48:27;98062.77;;;8.85;58.39
41306;BME280;27051;50.376;19.152;2023-02-17T13:51:05;98060.95;;;8.86;58.50
41306;BME280;27051;50.376;19.152;2023-02-17T13:53:37;98055.42;;;8.90;58.54
41306;BME280;27051;50.376;19.152;2023-02-17T13:56:10;98063.63;;;8.93;58.68
41306;BME280;27051;50.376;19.152;2023-02-17T13:58:39;98059.86;;;8.90;58.46
41306;BME280;27051;50.376;19.152;2023-02-17T14:01:12;98059.98;;;8.91;58.58
41306;BME280;27051;50.376;19.152;2023-02-17T14:06:11;98047.08;;;8.97;58.74
41306;BME280;27051;50.376;19.152;2023-02-17T14:08:38;98052.59;;;8.97;58.97
41306;BME280;27051;50.376;19.152;2023-02-17T14:11:10;98046.14;;;8.94;58.94
41306;BME280;27051;50.376;19.152;2023-02-17T14:13:38;98045.36;;;8.91;59.15
41306;BME280;27051;50.376;19.152;2023-02-17T14:16:05;98045.27;;;8.86;59.19
41306;BME280;27051;50.376;19.152;2023-02-17T14:18:39;98039.63;;;8.85;59.34
41306;BME280;27051;50.376;19.152;2023-02-17T14:21:10;98037.17;;;8.85;59.44
41306;BME280;27051;50.376;19.152;2023-02-17T14:23:45;98029.56;;;8.82;59.19
41306;BME280;27051;50.376;19.152;2023-02-17T14:26:23;98035.19;;;8.81;59.56
41306;BME280;27051;50.376;19.152;2023-02-17T14:28:52;98033.55;;;8.79;59.54
41306;BME280;27051;50.376;19.152;2023-02-17T14:31:19;98025.69;;;8.74;59.77